Terminal Aerodrome Forecast
Issued by NWS Cleveland, OH

Home | Current Version | Previous Version | Graphics & Text | Print | Product List | Glossary On
Versions: 1 2 3 4 5 6 7 8 9 10 11 12 13 14 15 16 17 18 19 20 21 22 23 24 25
000
FTUS41 KCLE 310300 AAA
TAFERI
TAF AMD
KERI 310348Z 3104/3124 VRB05KT P6SM BKN080 BKN250
     FM310600 VRB05KT P6SM BKN080 OVC150
     FM310930 09005KT 2SM -SN OVC035
      TEMPO 3111/3115 1SM -SN OVC015
     FM311500 05008KT 3SM -RASN OVC025
     FM311700 36008KT P6SM BKN025 OVC080=

USA.gov is the U.S. government's official web portal to all federal, state and local government web resources and services.